sensor_id;sensor_type;location;lat;lon;timestamp;P1;durP1;ratioP1;P2;durP2;ratioP2
15699;SDS011;7950;42.744;23.174;2023-05-23T00:01:51;7.20;;;4.50;;
15699;SDS011;7950;42.744;23.174;2023-05-23T00:04:22;5.10;;;4.60;;
15699;SDS011;7950;42.744;23.174;2023-05-23T00:06:52;6.87;;;4.17;;
15699;SDS011;7950;42.744;23.174;2023-05-23T00:09:22;5.00;;;4.33;;
15699;SDS011;7950;42.744;23.174;2023-05-23T00:11:50;4.00;;;3.60;;
15699;SDS011;7950;42.744;23.174;2023-05-23T00:14:19;7.50;;;3.77;;
15699;SDS011;7950;42.744;23.174;2023-05-23T00:16:49;4.30;;;3.90;;
15699;SDS011;7950;42.744;23.174;2023-05-23T00:19:17;4.93;;;3.80;;
15699;SDS011;7950;42.744;23.174;2023-05-23T00:21:47;4.30;;;3.90;;
15699;SDS011;7950;42.744;23.174;2023-05-23T00:24:16;5.10;;;3.80;;
15699;SDS011;7950;42.744;23.174;2023-05-23T00:26:46;4.50;;;4.10;;
15699;SDS011;7950;42.744;23.174;2023-05-23T00:29:14;4.43;;;3.40;;
15699;SDS011;7950;42.744;23.174;2023-05-23T00:31:43;4.23;;;3.67;;
15699;SDS011;7950;42.744;23.174;2023-05-23T00:34:13;4.33;;;3.63;;
15699;SDS011;7950;42.744;23.174;2023-05-23T00:36:43;5.90;;;4.20;;
15699;SDS011;7950;42.744;23.174;2023-05-23T00:39:15;4.60;;;3.60;;
15699;SDS011;7950;42.744;23.174;2023-05-23T00:41:47;4.27;;;3.87;;
15699;SDS011;7950;42.744;23.174;2023-05-23T00:44:18;4.53;;;3.73;;
15699;SDS011;7950;42.744;23.174;2023-05-23T00:46:49;3.67;;;3.37;;
15699;SDS011;7950;42.744;23.174;2023-05-23T00:49:21;4.43;;;3.63;;
15699;SDS011;7950;42.744;23.174;2023-05-23T00:51:53;3.60;;;3.30;;
15699;SDS011;7950;42.744;23.174;2023-05-23T00:54:25;3.70;;;3.40;;
15699;SDS011;7950;42.744;23.174;2023-05-23T00:56:57;3.17;;;2.80;;
15699;SDS011;7950;42.744;23.174;2023-05-23T00:59:26;4.40;;;3.43;;
15699;SDS011;7950;42.744;23.174;2023-05-23T01:01:56;3.67;;;3.30;;
15699;SDS011;7950;42.744;23.174;2023-05-23T01:04:27;3.30;;;3.00;;
15699;SDS011;7950;42.744;23.174;2023-05-23T01:06:59;3.40;;;3.10;;
15699;SDS011;7950;42.744;23.174;2023-05-23T01:09:30;4.83;;;3.70;;
15699;SDS011;7950;42.744;23.174;2023-05-23T01:12:18;3.13;;;2.93;;
15699;SDS011;7950;42.744;23.174;2023-05-23T01:15:08;5.07;;;3.23;;
15699;SDS011;7950;42.744;23.174;2023-05-23T01:17:43;3.27;;;2.90;;
15699;SDS011;7950;42.744;23.174;2023-05-23T01:20:20;3.20;;;2.40;;
15699;SDS011;7950;42.744;23.174;2023-05-23T01:22:59;3.57;;;2.80;;
15699;SDS011;7950;42.744;23.174;2023-05-23T01:25:51;3.83;;;3.10;;
15699;SDS011;7950;42.744;23.174;2023-05-23T01:28:36;3.60;;;3.03;;
15699;SDS011;7950;42.744;23.174;2023-05-23T01:31:13;2.80;;;2.60;;
15699;SDS011;7950;42.744;23.174;2023-05-23T01:33:45;4.13;;;3.60;;
15699;SDS011;7950;42.744;23.174;2023-05-23T01:36:16;4.50;;;3.27;;
15699;SDS011;7950;42.744;23.174;2023-05-23T01:38:46;3.83;;;3.47;;
15699;SDS011;7950;42.744;23.174;2023-05-23T01:41:15;4.10;;;3.13;;
15699;SDS011;7950;42.744;23.174;2023-05-23T01:43:45;3.37;;;3.00;;
15699;SDS011;7950;42.744;23.174;2023-05-23T01:46:14;3.17;;;2.87;;
15699;SDS011;7950;42.744;23.174;2023-05-23T01:48:44;3.30;;;3.00;;
15699;SDS011;7950;42.744;23.174;2023-05-23T01:51:14;3.50;;;3.20;;
15699;SDS011;7950;42.744;23.174;2023-05-23T01:53:42;3.90;;;3.20;;
15699;SDS011;7950;42.744;23.174;2023-05-23T01:56:11;5.27;;;3.10;;
15699;SDS011;7950;42.744;23.174;2023-05-23T01:58:41;3.97;;;3.57;;
15699;SDS011;7950;42.744;23.174;2023-05-23T02:01:11;3.50;;;3.20;;
15699;SDS011;7950;42.744;23.174;2023-05-23T02:03:39;4.10;;;3.33;;
15699;SDS011;7950;42.744;23.174;2023-05-23T02:06:08;3.77;;;2.77;;
15699;SDS011;7950;42.744;23.174;2023-05-23T02:08:37;3.80;;;3.40;;
15699;SDS011;7950;42.744;23.174;2023-05-23T02:11:06;4.10;;;3.20;;
15699;SDS011;7950;42.744;23.174;2023-05-23T02:13:36;3.60;;;2.87;;
15699;SDS011;7950;42.744;23.174;2023-05-23T02:16:04;3.23;;;2.60;;
15699;SDS011;7950;42.744;23.174;2023-05-23T02:18:34;3.33;;;2.87;;
15699;SDS011;7950;42.744;23.174;2023-05-23T02:21:03;3.37;;;2.73;;
15699;SDS011;7950;42.744;23.174;2023-05-23T02:23:32;3.50;;;2.63;;
15699;SDS011;7950;42.744;23.174;2023-05-23T02:26:01;3.10;;;2.80;;
15699;SDS011;7950;42.744;23.174;2023-05-23T02:28:29;3.57;;;2.63;;
15699;SDS011;7950;42.744;23.174;2023-05-23T02:30:58;2.90;;;2.70;;
15699;SDS011;7950;42.744;23.174;2023-05-23T02:33:27;3.73;;;2.80;;
15699;SDS011;7950;42.744;23.174;2023-05-23T03:00:03;3.47;;;2.70;;
15699;SDS011;7950;42.744;23.174;2023-05-23T03:02:35;2.57;;;2.37;;
15699;SDS011;7950;42.744;23.174;2023-05-23T03:05:04;4.20;;;2.60;;
15699;SDS011;7950;42.744;23.174;2023-05-23T03:07:34;3.10;;;2.80;;
15699;SDS011;7950;42.744;23.174;2023-05-23T03:10:02;5.00;;;2.70;;
15699;SDS011;7950;42.744;23.174;2023-05-23T03:12:32;3.20;;;2.90;;
15699;SDS011;7950;42.744;23.174;2023-05-23T03:15:00;4.33;;;2.70;;
15699;SDS011;7950;42.744;23.174;2023-05-23T03:17:31;4.40;;;2.83;;
15699;SDS011;7950;42.744;23.174;2023-05-23T03:20:00;3.83;;;2.70;;
15699;SDS011;7950;42.744;23.174;2023-05-23T03:22:29;4.37;;;3.17;;
15699;SDS011;7950;42.744;23.174;2023-05-23T03:24:57;6.27;;;4.30;;
15699;SDS011;7950;42.744;23.174;2023-05-23T03:27:26;3.53;;;3.20;;
15699;SDS011;7950;42.744;23.174;2023-05-23T03:29:54;4.07;;;2.80;;
15699;SDS011;7950;42.744;23.174;2023-05-23T03:32:24;2.93;;;2.70;;
15699;SDS011;7950;42.744;23.174;2023-05-23T03:34:53;4.00;;;2.77;;
15699;SDS011;7950;42.744;23.174;2023-05-23T03:37:21;3.77;;;2.70;;
15699;SDS011;7950;42.744;23.174;2023-05-23T03:39:50;2.93;;;2.57;;
15699;SDS011;7950;42.744;23.174;2023-05-23T03:42:18;3.00;;;2.43;;
15699;SDS011;7950;42.744;23.174;2023-05-23T03:44:47;5.07;;;2.70;;
15699;SDS011;7950;42.744;23.174;2023-05-23T03:47:15;2.57;;;2.37;;
15699;SDS011;7950;42.744;23.174;2023-05-23T03:49:45;3.20;;;2.50;;
15699;SDS011;7950;42.744;23.174;2023-05-23T03:52:13;5.70;;;2.87;;
15699;SDS011;7950;42.744;23.174;2023-05-23T03:54:42;2.93;;;2.57;;
15699;SDS011;7950;42.744;23.174;2023-05-23T03:57:10;5.63;;;2.70;;
15699;SDS011;7950;42.744;23.174;2023-05-23T03:59:39;4.30;;;2.93;;
15699;SDS011;7950;42.744;23.174;2023-05-23T04:02:08;2.83;;;2.57;;
15699;SDS011;7950;42.744;23.174;2023-05-23T04:04:36;2.80;;;2.60;;
15699;SDS011;7950;42.744;23.174;2023-05-23T04:07:06;3.07;;;2.70;;
15699;SDS011;7950;42.744;23.174;2023-05-23T04:09:36;3.00;;;2.60;;
15699;SDS011;7950;42.744;23.174;2023-05-23T04:12:05;4.50;;;3.10;;
15699;SDS011;7950;42.744;23.174;2023-05-23T04:14:34;3.00;;;2.80;;
15699;SDS011;7950;42.744;23.174;2023-05-23T04:17:04;2.70;;;2.50;;
15699;SDS011;7950;42.744;23.174;2023-05-23T04:19:34;3.40;;;2.90;;
15699;SDS011;7950;42.744;23.174;2023-05-23T04:22:03;5.10;;;4.13;;
15699;SDS011;7950;42.744;23.174;2023-05-23T04:37:17;5.77;;;4.67;;
15699;SDS011;7950;42.744;23.174;2023-05-23T04:39:51;6.00;;;5.20;;
15699;SDS011;7950;42.744;23.174;2023-05-23T04:42:20;7.73;;;5.10;;
15699;SDS011;7950;42.744;23.174;2023-05-23T04:56:12;5.87;;;5.00;;
15699;SDS011;7950;42.744;23.174;2023-05-23T04:58:41;6.50;;;5.80;;
15699;SDS011;7950;42.744;23.174;2023-05-23T05:01:10;7.83;;;6.60;;
15699;SDS011;7950;42.744;23.174;2023-05-23T05:03:39;13.83;;;9.13;;
15699;SDS011;7950;42.744;23.174;2023-05-23T05:06:08;12.37;;;8.93;;
15699;SDS011;7950;42.744;23.174;2023-05-23T05:08:36;13.60;;;8.70;;
15699;SDS011;7950;42.744;23.174;2023-05-23T05:11:06;13.90;;;10.40;;
15699;SDS011;7950;42.744;23.174;2023-05-23T05:13:37;14.70;;;10.73;;
15699;SDS011;7950;42.744;23.174;2023-05-23T05:16:06;12.93;;;9.40;;
15699;SDS011;7950;42.744;23.174;2023-05-23T05:18:34;12.87;;;9.20;;
15699;SDS011;7950;42.744;23.174;2023-05-23T05:21:03;7.90;;;6.97;;
15699;SDS011;7950;42.744;23.174;2023-05-23T05:23:31;11.93;;;9.00;;
15699;SDS011;7950;42.744;23.174;2023-05-23T05:26:00;10.03;;;8.73;;
15699;SDS011;7950;42.744;23.174;2023-05-23T05:28:30;9.70;;;8.20;;
15699;SDS011;7950;42.744;23.174;2023-05-23T05:31:00;10.23;;;8.40;;
15699;SDS011;7950;42.744;23.174;2023-05-23T05:33:30;8.47;;;7.63;;
15699;SDS011;7950;42.744;23.174;2023-05-23T05:36:01;8.50;;;7.30;;
15699;SDS011;7950;42.744;23.174;2023-05-23T05:38:32;9.63;;;8.40;;
15699;SDS011;7950;42.744;23.174;2023-05-23T05:41:00;10.63;;;8.57;;
15699;SDS011;7950;42.744;23.174;2023-05-23T05:43:29;9.30;;;8.03;;
15699;SDS011;7950;42.744;23.174;2023-05-23T05:45:57;9.23;;;7.93;;
15699;SDS011;7950;42.744;23.174;2023-05-23T05:48:27;9.03;;;7.87;;
15699;SDS011;7950;42.744;23.174;2023-05-23T05:50:56;14.63;;;9.60;;
15699;SDS011;7950;42.744;23.174;2023-05-23T05:53:26;9.73;;;8.73;;
15699;SDS011;7950;42.744;23.174;2023-05-23T05:55:55;10.70;;;8.80;;
15699;SDS011;7950;42.744;23.174;2023-05-23T05:58:23;10.40;;;7.90;;
15699;SDS011;7950;42.744;23.174;2023-05-23T06:00:53;16.77;;;8.40;;
15699;SDS011;7950;42.744;23.174;2023-05-23T06:03:22;8.10;;;7.30;;
15699;SDS011;7950;42.744;23.174;2023-05-23T06:05:53;14.73;;;8.97;;
15699;SDS011;7950;42.744;23.174;2023-05-23T06:08:21;11.40;;;9.47;;
15699;SDS011;7950;42.744;23.174;2023-05-23T06:10:50;10.30;;;8.30;;
15699;SDS011;7950;42.744;23.174;2023-05-23T06:13:18;8.30;;;7.50;;
15699;SDS011;7950;42.744;23.174;2023-05-23T06:15:47;9.00;;;7.93;;
15699;SDS011;7950;42.744;23.174;2023-05-23T06:18:16;10.97;;;8.13;;
15699;SDS011;7950;42.744;23.174;2023-05-23T06:20:44;12.93;;;9.27;;
15699;SDS011;7950;42.744;23.174;2023-05-23T06:23:14;13.17;;;9.23;;
15699;SDS011;7950;42.744;23.174;2023-05-23T06:25:43;13.57;;;8.70;;
15699;SDS011;7950;42.744;23.174;2023-05-23T06:28:11;12.20;;;9.43;;
15699;SDS011;7950;42.744;23.174;2023-05-23T06:30:40;12.43;;;9.83;;
15699;SDS011;7950;42.744;23.174;2023-05-23T06:33:09;10.10;;;7.80;;
15699;SDS011;7950;42.744;23.174;2023-05-23T06:35:37;11.27;;;9.37;;
15699;SDS011;7950;42.744;23.174;2023-05-23T06:38:06;9.40;;;8.37;;
15699;SDS011;7950;42.744;23.174;2023-05-23T06:40:36;10.80;;;9.00;;
15699;SDS011;7950;42.744;23.174;2023-05-23T06:43:05;12.47;;;10.10;;
15699;SDS011;7950;42.744;23.174;2023-05-23T06:45:34;10.63;;;9.00;;
15699;SDS011;7950;42.744;23.174;2023-05-23T06:48:03;10.30;;;9.20;;
15699;SDS011;7950;42.744;23.174;2023-05-23T06:50:32;11.83;;;9.60;;
15699;SDS011;7950;42.744;23.174;2023-05-23T06:53:01;10.60;;;9.00;;
15699;SDS011;7950;42.744;23.174;2023-05-23T06:55:29;12.87;;;10.40;;
15699;SDS011;7950;42.744;23.174;2023-05-23T06:58:00;13.30;;;10.33;;
15699;SDS011;7950;42.744;23.174;2023-05-23T07:00:30;12.00;;;10.77;;
15699;SDS011;7950;42.744;23.174;2023-05-23T07:02:59;13.80;;;10.83;;
15699;SDS011;7950;42.744;23.174;2023-05-23T07:05:29;12.43;;;10.37;;
15699;SDS011;7950;42.744;23.174;2023-05-23T07:07:58;10.97;;;9.83;;
15699;SDS011;7950;42.744;23.174;2023-05-23T07:10:27;11.43;;;9.63;;
15699;SDS011;7950;42.744;23.174;2023-05-23T07:12:56;11.87;;;10.67;;
15699;SDS011;7950;42.744;23.174;2023-05-23T07:15:26;12.37;;;10.73;;
15699;SDS011;7950;42.744;23.174;2023-05-23T07:17:54;15.07;;;10.50;;
15699;SDS011;7950;42.744;23.174;2023-05-23T07:20:23;12.97;;;10.93;;
15699;SDS011;7950;42.744;23.174;2023-05-23T07:22:51;15.73;;;11.67;;
15699;SDS011;7950;42.744;23.174;2023-05-23T07:25:20;12.70;;;10.57;;
15699;SDS011;7950;42.744;23.174;2023-05-23T07:27:49;13.63;;;12.23;;
15699;SDS011;7950;42.744;23.174;2023-05-23T07:30:18;11.83;;;10.53;;
15699;SDS011;7950;42.744;23.174;2023-05-23T07:32:48;11.40;;;10.20;;
15699;SDS011;7950;42.744;23.174;2023-05-23T07:35:17;12.57;;;11.27;;
15699;SDS011;7950;42.744;23.174;2023-05-23T07:37:49;15.40;;;11.17;;
15699;SDS011;7950;42.744;23.174;2023-05-23T07:40:18;13.50;;;11.67;;
15699;SDS011;7950;42.744;23.174;2023-05-23T07:42:48;11.20;;;10.10;;
15699;SDS011;7950;42.744;23.174;2023-05-23T07:45:18;9.63;;;8.73;;
15699;SDS011;7950;42.744;23.174;2023-05-23T07:47:48;13.20;;;10.43;;
15699;SDS011;7950;42.744;23.174;2023-05-23T07:50:18;11.57;;;10.37;;
15699;SDS011;7950;42.744;23.174;2023-05-23T07:52:47;11.73;;;8.90;;
15699;SDS011;7950;42.744;23.174;2023-05-23T07:55:16;9.70;;;8.70;;
15699;SDS011;7950;42.744;23.174;2023-05-23T07:57:45;8.90;;;7.73;;
15699;SDS011;7950;42.744;23.174;2023-05-23T08:00:13;8.37;;;7.33;;
15699;SDS011;7950;42.744;23.174;2023-05-23T08:02:43;10.50;;;9.00;;
15699;SDS011;7950;42.744;23.174;2023-05-23T08:05:13;8.53;;;7.63;;
15699;SDS011;7950;42.744;23.174;2023-05-23T08:07:42;9.90;;;8.43;;
15699;SDS011;7950;42.744;23.174;2023-05-23T08:10:10;11.83;;;8.37;;
15699;SDS011;7950;42.744;23.174;2023-05-23T08:12:39;10.07;;;7.37;;
15699;SDS011;7950;42.744;23.174;2023-05-23T08:15:08;10.90;;;8.40;;
15699;SDS011;7950;42.744;23.174;2023-05-23T08:17:38;9.87;;;8.40;;
15699;SDS011;7950;42.744;23.174;2023-05-23T08:20:07;10.47;;;8.00;;
15699;SDS011;7950;42.744;23.174;2023-05-23T08:22:39;8.97;;;7.57;;
15699;SDS011;7950;42.744;23.174;2023-05-23T08:25:07;10.10;;;9.00;;
15699;SDS011;7950;42.744;23.174;2023-05-23T08:27:36;10.53;;;9.43;;
15699;SDS011;7950;42.744;23.174;2023-05-23T08:30:05;11.67;;;9.00;;
15699;SDS011;7950;42.744;23.174;2023-05-23T08:32:36;9.13;;;8.23;;
15699;SDS011;7950;42.744;23.174;2023-05-23T08:35:05;11.73;;;8.70;;
15699;SDS011;7950;42.744;23.174;2023-05-23T08:37:35;10.20;;;8.77;;
15699;SDS011;7950;42.744;23.174;2023-05-23T08:40:06;9.33;;;8.33;;
15699;SDS011;7950;42.744;23.174;2023-05-23T08:42:41;12.43;;;8.93;;
15699;SDS011;7950;42.744;23.174;2023-05-23T08:45:09;7.90;;;6.93;;
15699;SDS011;7950;42.744;23.174;2023-05-23T08:47:39;9.80;;;8.17;;
15699;SDS011;7950;42.744;23.174;2023-05-23T08:50:11;10.27;;;8.60;;
15699;SDS011;7950;42.744;23.174;2023-05-23T08:52:47;8.30;;;7.50;;
15699;SDS011;7950;42.744;23.174;2023-05-23T08:55:24;12.03;;;9.80;;
15699;SDS011;7950;42.744;23.174;2023-05-23T08:57:54;13.13;;;9.27;;
15699;SDS011;7950;42.744;23.174;2023-05-23T09:00:25;10.40;;;8.20;;
15699;SDS011;7950;42.744;23.174;2023-05-23T09:02:55;12.43;;;9.40;;
15699;SDS011;7950;42.744;23.174;2023-05-23T09:05:25;10.90;;;9.07;;
15699;SDS011;7950;42.744;23.174;2023-05-23T09:07:53;11.47;;;9.50;;
15699;SDS011;7950;42.744;23.174;2023-05-23T09:10:23;10.50;;;9.33;;
15699;SDS011;7950;42.744;23.174;2023-05-23T09:12:55;10.43;;;8.77;;
15699;SDS011;7950;42.744;23.174;2023-05-23T09:15:24;9.63;;;7.80;;
15699;SDS011;7950;42.744;23.174;2023-05-23T09:17:58;12.40;;;8.80;;
15699;SDS011;7950;42.744;23.174;2023-05-23T09:20:28;12.50;;;8.53;;
15699;SDS011;7950;42.744;23.174;2023-05-23T09:22:57;14.57;;;10.53;;
15699;SDS011;7950;42.744;23.174;2023-05-23T09:25:30;14.83;;;10.33;;
15699;SDS011;7950;42.744;23.174;2023-05-23T09:27:59;16.67;;;9.60;;
15699;SDS011;7950;42.744;23.174;2023-05-23T09:30:30;10.13;;;6.73;;
15699;SDS011;7950;42.744;23.174;2023-05-23T09:33:01;7.97;;;7.03;;
15699;SDS011;7950;42.744;23.174;2023-05-23T09:35:31;11.23;;;7.33;;
15699;SDS011;7950;42.744;23.174;2023-05-23T09:37:59;12.37;;;8.60;;
15699;SDS011;7950;42.744;23.174;2023-05-23T09:40:28;14.90;;;9.70;;
15699;SDS011;7950;42.744;23.174;2023-05-23T09:43:02;14.10;;;8.87;;
15699;SDS011;7950;42.744;23.174;2023-05-23T09:45:33;11.27;;;7.67;;
15699;SDS011;7950;42.744;23.174;2023-05-23T09:48:01;12.27;;;7.40;;
15699;SDS011;7950;42.744;23.174;2023-05-23T09:50:30;6.17;;;5.23;;
15699;SDS011;7950;42.744;23.174;2023-05-23T09:53:00;8.40;;;4.90;;
15699;SDS011;7950;42.744;23.174;2023-05-23T09:55:29;5.70;;;4.40;;
15699;SDS011;7950;42.744;23.174;2023-05-23T09:57:59;4.47;;;4.07;;
15699;SDS011;7950;42.744;23.174;2023-05-23T10:00:29;8.47;;;5.07;;
15699;SDS011;7950;42.744;23.174;2023-05-23T10:03:03;6.03;;;4.50;;
15699;SDS011;7950;42.744;23.174;2023-05-23T10:05:40;5.10;;;4.33;;
15699;SDS011;7950;42.744;23.174;2023-05-23T10:08:13;5.43;;;4.73;;
15699;SDS011;7950;42.744;23.174;2023-05-23T10:14:18;6.80;;;4.60;;
15699;SDS011;7950;42.744;23.174;2023-05-23T10:16:52;6.67;;;4.13;;
15699;SDS011;7950;42.744;23.174;2023-05-23T10:19:30;7.23;;;4.83;;
15699;SDS011;7950;42.744;23.174;2023-05-23T10:22:09;7.23;;;4.53;;
15699;SDS011;7950;42.744;23.174;2023-05-23T10:24:40;7.80;;;4.67;;
15699;SDS011;7950;42.744;23.174;2023-05-23T10:27:11;5.30;;;4.37;;
15699;SDS011;7950;42.744;23.174;2023-05-23T10:29:43;8.30;;;4.57;;
15699;SDS011;7950;42.744;23.174;2023-05-23T10:32:12;6.43;;;4.50;;
15699;SDS011;7950;42.744;23.174;2023-05-23T10:34:43;5.40;;;4.90;;
15699;SDS011;7950;42.744;23.174;2023-05-23T10:37:28;5.97;;;4.73;;
15699;SDS011;7950;42.744;23.174;2023-05-23T10:40:19;8.57;;;4.40;;
15699;SDS011;7950;42.744;23.174;2023-05-23T10:42:59;8.50;;;5.00;;
15699;SDS011;7950;42.744;23.174;2023-05-23T10:45:40;6.00;;;4.50;;
15699;SDS011;7950;42.744;23.174;2023-05-23T10:48:18;8.07;;;4.10;;
15699;SDS011;7950;42.744;23.174;2023-05-23T10:51:00;5.10;;;4.60;;
15699;SDS011;7950;42.744;23.174;2023-05-23T10:53:31;7.33;;;4.67;;
15699;SDS011;7950;42.744;23.174;2023-05-23T10:56:03;5.40;;;4.30;;
15699;SDS011;7950;42.744;23.174;2023-05-23T10:58:34;4.20;;;3.80;;
15699;SDS011;7950;42.744;23.174;2023-05-23T11:01:08;6.73;;;3.97;;
15699;SDS011;7950;42.744;23.174;2023-05-23T11:03:48;5.00;;;3.90;;
15699;SDS011;7950;42.744;23.174;2023-05-23T11:06:28;6.87;;;3.90;;
15699;SDS011;7950;42.744;23.174;2023-05-23T11:09:03;5.40;;;3.80;;
15699;SDS011;7950;42.744;23.174;2023-05-23T11:11:55;8.00;;;4.10;;
15699;SDS011;7950;42.744;23.174;2023-05-23T11:14:32;7.57;;;4.10;;
15699;SDS011;7950;42.744;23.174;2023-05-23T11:17:32;4.93;;;4.00;;
15699;SDS011;7950;42.744;23.174;2023-05-23T11:20:02;6.80;;;4.10;;
15699;SDS011;7950;42.744;23.174;2023-05-23T11:22:33;6.73;;;4.17;;
15699;SDS011;7950;42.744;23.174;2023-05-23T11:25:05;6.87;;;3.80;;
15699;SDS011;7950;42.744;23.174;2023-05-23T11:27:36;6.03;;;4.30;;
15699;SDS011;7950;42.744;23.174;2023-05-23T11:30:08;6.73;;;3.90;;
15699;SDS011;7950;42.744;23.174;2023-05-23T11:32:41;4.07;;;3.67;;
15699;SDS011;7950;42.744;23.174;2023-05-23T11:35:18;5.80;;;4.00;;
15699;SDS011;7950;42.744;23.174;2023-05-23T11:37:48;4.07;;;3.67;;
15699;SDS011;7950;42.744;23.174;2023-05-23T11:40:26;5.17;;;4.23;;
15699;SDS011;7950;42.744;23.174;2023-05-23T11:42:57;3.93;;;3.60;;
15699;SDS011;7950;42.744;23.174;2023-05-23T11:45:27;5.17;;;3.53;;
15699;SDS011;7950;42.744;23.174;2023-05-23T11:48:03;7.83;;;3.83;;
15699;SDS011;7950;42.744;23.174;2023-05-23T11:50:33;5.60;;;4.03;;
15699;SDS011;7950;42.744;23.174;2023-05-23T11:53:10;4.87;;;4.03;;
15699;SDS011;7950;42.744;23.174;2023-05-23T11:55:39;4.77;;;3.83;;
15699;SDS011;7950;42.744;23.174;2023-05-23T11:58:15;4.80;;;3.93;;
15699;SDS011;7950;42.744;23.174;2023-05-23T12:00:44;6.13;;;3.80;;
15699;SDS011;7950;42.744;23.174;2023-05-23T12:03:14;6.53;;;4.00;;
15699;SDS011;7950;42.744;23.174;2023-05-23T12:05:43;8.63;;;3.60;;
15699;SDS011;7950;42.744;23.174;2023-05-23T12:08:12;5.63;;;3.63;;
15699;SDS011;7950;42.744;23.174;2023-05-23T12:10:50;5.50;;;3.80;;
15699;SDS011;7950;42.744;23.174;2023-05-23T12:13:22;4.93;;;4.13;;
15699;SDS011;7950;42.744;23.174;2023-05-23T12:15:55;5.37;;;3.47;;
15699;SDS011;7950;42.744;23.174;2023-05-23T12:18:28;5.00;;;3.80;;
15699;SDS011;7950;42.744;23.174;2023-05-23T12:20:58;5.73;;;3.77;;
15699;SDS011;7950;42.744;23.174;2023-05-23T12:23:28;5.73;;;3.50;;
15699;SDS011;7950;42.744;23.174;2023-05-23T12:26:03;4.53;;;3.53;;
15699;SDS011;7950;42.744;23.174;2023-05-23T12:28:34;6.60;;;4.33;;
15699;SDS011;7950;42.744;23.174;2023-05-23T12:31:08;4.07;;;3.50;;
15699;SDS011;7950;42.744;23.174;2023-05-23T12:33:40;5.03;;;3.50;;
15699;SDS011;7950;42.744;23.174;2023-05-23T12:36:10;4.70;;;3.70;;
15699;SDS011;7950;42.744;23.174;2023-05-23T12:38:39;4.83;;;3.57;;
15699;SDS011;7950;42.744;23.174;2023-05-23T12:41:11;3.77;;;3.20;;
15699;SDS011;7950;42.744;23.174;2023-05-23T12:43:48;4.33;;;3.73;;
15699;SDS011;7950;42.744;23.174;2023-05-23T12:58:10;4.67;;;3.47;;
15699;SDS011;7950;42.744;23.174;2023-05-23T13:00:38;4.50;;;3.50;;
15699;SDS011;7950;42.744;23.174;2023-05-23T13:03:07;4.23;;;3.33;;
15699;SDS011;7950;42.744;23.174;2023-05-23T13:05:35;6.77;;;3.20;;
15699;SDS011;7950;42.744;23.174;2023-05-23T13:08:05;8.57;;;3.70;;
15699;SDS011;7950;42.744;23.174;2023-05-23T13:10:34;4.30;;;3.43;;
15699;SDS011;7950;42.744;23.174;2023-05-23T13:13:03;4.37;;;3.47;;
15699;SDS011;7950;42.744;23.174;2023-05-23T13:15:34;4.80;;;3.40;;
15699;SDS011;7950;42.744;23.174;2023-05-23T13:18:02;3.77;;;3.40;;
15699;SDS011;7950;42.744;23.174;2023-05-23T13:20:32;4.40;;;3.70;;
15699;SDS011;7950;42.744;23.174;2023-05-23T13:23:00;4.33;;;3.60;;
15699;SDS011;7950;42.744;23.174;2023-05-23T13:25:29;5.43;;;3.83;;
15699;SDS011;7950;42.744;23.174;2023-05-23T13:27:58;7.60;;;4.57;;
15699;SDS011;7950;42.744;23.174;2023-05-23T13:30:27;6.87;;;3.67;;
15699;SDS011;7950;42.744;23.174;2023-05-23T13:32:57;5.20;;;4.10;;
15699;SDS011;7950;42.744;23.174;2023-05-23T13:35:26;5.10;;;3.73;;
15699;SDS011;7950;42.744;23.174;2023-05-23T13:37:55;6.27;;;4.37;;
15699;SDS011;7950;42.744;23.174;2023-05-23T13:40:23;4.47;;;3.93;;
15699;SDS011;7950;42.744;23.174;2023-05-23T13:42:52;5.30;;;4.00;;
15699;SDS011;7950;42.744;23.174;2023-05-23T13:45:21;5.20;;;4.17;;
15699;SDS011;7950;42.744;23.174;2023-05-23T13:47:50;5.60;;;3.73;;
15699;SDS011;7950;42.744;23.174;2023-05-23T13:50:20;5.87;;;3.90;;
15699;SDS011;7950;42.744;23.174;2023-05-23T13:52:49;4.87;;;3.93;;
15699;SDS011;7950;42.744;23.174;2023-05-23T13:55:17;4.23;;;3.60;;
15699;SDS011;7950;42.744;23.174;2023-05-23T13:57:46;6.17;;;4.27;;
15699;SDS011;7950;42.744;23.174;2023-05-23T14:00:15;4.60;;;3.57;;
15699;SDS011;7950;42.744;23.174;2023-05-23T14:02:44;3.87;;;3.43;;
15699;SDS011;7950;42.744;23.174;2023-05-23T14:05:12;6.60;;;4.27;;
15699;SDS011;7950;42.744;23.174;2023-05-23T14:07:43;5.67;;;3.93;;
15699;SDS011;7950;42.744;23.174;2023-05-23T14:10:12;4.60;;;3.60;;
15699;SDS011;7950;42.744;23.174;2023-05-23T14:12:42;5.63;;;3.80;;
15699;SDS011;7950;42.744;23.174;2023-05-23T14:15:11;13.47;;;4.97;;
15699;SDS011;7950;42.744;23.174;2023-05-23T14:17:40;4.27;;;3.87;;
15699;SDS011;7950;42.744;23.174;2023-05-23T14:20:08;4.30;;;3.90;;
15699;SDS011;7950;42.744;23.174;2023-05-23T14:22:38;6.20;;;3.40;;
15699;SDS011;7950;42.744;23.174;2023-05-23T14:25:08;4.00;;;3.63;;
15699;SDS011;7950;42.744;23.174;2023-05-23T14:27:37;3.87;;;3.43;;
15699;SDS011;7950;42.744;23.174;2023-05-23T14:30:07;3.97;;;3.63;;
15699;SDS011;7950;42.744;23.174;2023-05-23T14:32:36;3.80;;;3.37;;
15699;SDS011;7950;42.744;23.174;2023-05-23T14:35:06;4.90;;;3.50;;
15699;SDS011;7950;42.744;23.174;2023-05-23T14:37:37;4.77;;;4.00;;
15699;SDS011;7950;42.744;23.174;2023-05-23T14:40:06;4.73;;;4.10;;
15699;SDS011;7950;42.744;23.174;2023-05-23T14:42:38;5.13;;;3.90;;
15699;SDS011;7950;42.744;23.174;2023-05-23T14:45:07;3.97;;;3.33;;
15699;SDS011;7950;42.744;23.174;2023-05-23T14:47:36;5.20;;;3.70;;
15699;SDS011;7950;42.744;23.174;2023-05-23T14:50:06;7.37;;;3.93;;
15699;SDS011;7950;42.744;23.174;2023-05-23T14:52:35;4.97;;;3.60;;
15699;SDS011;7950;42.744;23.174;2023-05-23T14:55:04;4.53;;;3.30;;
15699;SDS011;7950;42.744;23.174;2023-05-23T14:57:35;3.70;;;3.23;;
15699;SDS011;7950;42.744;23.174;2023-05-23T15:00:05;5.97;;;3.67;;
15699;SDS011;7950;42.744;23.174;2023-05-23T15:02:35;5.13;;;3.67;;
15699;SDS011;7950;42.744;23.174;2023-05-23T15:05:04;4.63;;;3.30;;
15699;SDS011;7950;42.744;23.174;2023-05-23T15:07:34;7.53;;;3.47;;
15699;SDS011;7950;42.744;23.174;2023-05-23T15:10:04;7.67;;;4.80;;
15699;SDS011;7950;42.744;23.174;2023-05-23T15:12:36;4.53;;;3.40;;
15699;SDS011;7950;42.744;23.174;2023-05-23T15:15:04;5.37;;;3.53;;
15699;SDS011;7950;42.744;23.174;2023-05-23T15:17:34;3.60;;;3.00;;
15699;SDS011;7950;42.744;23.174;2023-05-23T15:20:03;3.93;;;3.40;;
15699;SDS011;7950;42.744;23.174;2023-05-23T15:22:34;3.40;;;3.10;;
15699;SDS011;7950;42.744;23.174;2023-05-23T15:25:05;5.67;;;3.60;;
15699;SDS011;7950;42.744;23.174;2023-05-23T15:27:37;4.20;;;3.10;;
15699;SDS011;7950;42.744;23.174;2023-05-23T15:30:06;4.63;;;3.33;;
15699;SDS011;7950;42.744;23.174;2023-05-23T15:32:35;4.63;;;3.37;;
15699;SDS011;7950;42.744;23.174;2023-05-23T15:35:04;3.57;;;3.20;;
15699;SDS011;7950;42.744;23.174;2023-05-23T15:37:33;3.43;;;3.13;;
15699;SDS011;7950;42.744;23.174;2023-05-23T15:40:02;4.57;;;3.20;;
15699;SDS011;7950;42.744;23.174;2023-05-23T15:42:32;4.10;;;3.70;;
15699;SDS011;7950;42.744;23.174;2023-05-23T15:45:02;4.77;;;3.40;;
15699;SDS011;7950;42.744;23.174;2023-05-23T15:47:31;3.90;;;3.50;;
15699;SDS011;7950;42.744;23.174;2023-05-23T15:50:00;5.93;;;3.10;;
15699;SDS011;7950;42.744;23.174;2023-05-23T15:52:28;7.67;;;3.60;;
15699;SDS011;7950;42.744;23.174;2023-05-23T15:54:57;3.93;;;3.10;;
15699;SDS011;7950;42.744;23.174;2023-05-23T15:57:27;3.87;;;3.27;;
15699;SDS011;7950;42.744;23.174;2023-05-23T15:59:55;6.07;;;3.40;;
15699;SDS011;7950;42.744;23.174;2023-05-23T16:02:25;4.07;;;3.07;;
15699;SDS011;7950;42.744;23.174;2023-05-23T16:04:54;3.43;;;3.13;;
15699;SDS011;7950;42.744;23.174;2023-05-23T16:07:23;3.80;;;3.33;;